Time;durP1;ratioP1;P1;durP2;ratioP2;P2;SDS_P1;SDS_P2;PMS_P1;PMS_P2;Temp;Humidity;BMP_temperature;BMP_pressure;BME280_temperature;BME280_humidity;BME280_pressure;Samples;Min_cycle;Max_cycle;Signal;HPM_P1;HPM_P2
2023/06/07 00:00:44;;;;;;;0.60;0.50;;;18.20;98.70;;;;;;5068687;28;20662;-64
2023/06/07 00:03:14;;;;;;;1.15;0.82;;;18.20;98.70;;;;;;5069849;28;20210;-64
2023/06/07 00:05:43;;;;;;;0.75;0.65;;;18.20;98.50;;;;;;5068034;28;20230;-63
2023/06/07 00:08:11;;;;;;;1.75;1.20;;;18.20;98.20;;;;;;5069812;28;20203;-63
2023/06/07 00:10:40;;;;;;;0.90;0.80;;;18.10;99.30;;;;;;5070371;28;20327;-63
2023/06/07 00:13:08;;;;;;;1.35;0.70;;;18.10;99.20;;;;;;5068067;28;20749;-64
2023/06/07 00:15:36;;;;;;;0.70;0.50;;;18.20;99.70;;;;;;5069652;28;20706;-63
2023/06/07 00:18:04;;;;;;;1.42;0.63;;;18.20;99.70;;;;;;5075441;28;20661;-64
2023/06/07 00:20:32;;;;;;;0.60;0.40;;;18.20;99.30;;;;;;5070407;28;20206;-64
2023/06/07 00:23:01;;;;;;;0.80;0.60;;;18.30;99.50;;;;;;5069840;28;20209;-64
2023/06/07 00:25:30;;;;;;;0.70;0.60;;;18.30;99.90;;;;;;5069360;28;20242;-62
2023/06/07 00:27:59;;;;;;;1.70;0.90;;;18.30;99.90;;;;;;5069915;28;20736;-63
2023/06/07 00:30:27;;;;;;;0.70;0.50;;;18.40;99.90;;;;;;5070062;28;20204;-64
2023/06/07 00:32:55;;;;;;;1.08;0.60;;;18.40;99.90;;;;;;5069855;28;20578;-64
2023/06/07 00:35:23;;;;;;;0.70;0.57;;;18.50;99.90;;;;;;5075669;28;20705;-63
2023/06/07 00:37:51;;;;;;;0.60;0.40;;;18.50;99.90;;;;;;5069563;28;20289;-64
2023/06/07 00:43:06;;;;;;;0.95;0.70;;;18.60;99.90;;;;;;5069840;28;20216;-64
2023/06/07 00:45:34;;;;;;;0.60;0.50;;;18.70;99.90;;;;;;5069114;28;20240;-65
2023/06/07 00:48:03;;;;;;;0.60;0.50;;;18.60;99.90;;;;;;5072961;28;20211;-64
2023/06/07 00:50:31;;;;;;;0.90;0.75;;;18.70;99.90;;;;;;5073626;28;20196;-64
2023/06/07 00:52:59;;;;;;;0.70;0.65;;;18.70;99.90;;;;;;5079881;28;20247;-64
2023/06/07 00:55:28;;;;;;;0.85;0.70;;;18.60;99.90;;;;;;5073135;28;20216;-64
2023/06/07 00:57:56;;;;;;;0.70;0.60;;;18.60;99.90;;;;;;5073211;28;20253;-64
2023/06/07 01:00:25;;;;;;;1.35;1.00;;;18.50;99.90;;;;;;5065408;28;21139;-65
2023/06/07 01:02:55;;;;;;;0.60;0.50;;;18.60;99.90;;;;;;5073163;28;20215;-65
2023/06/07 01:05:23;;;;;;;1.27;0.73;;;18.60;99.90;;;;;;5073157;28;20241;-64
2023/06/07 01:07:54;;;;;;;2.28;0.70;;;18.60;99.90;;;;;;5072834;28;20215;-65
2023/06/07 01:10:22;;;;;;;0.70;0.60;;;18.50;99.90;;;;;;5073768;28;20611;-64
2023/06/07 01:12:54;;;;;;;0.98;0.60;;;18.50;99.90;;;;;;5073089;28;20667;-64
2023/06/07 01:15:23;;;;;;;0.60;0.50;;;18.60;99.90;;;;;;5072439;28;20268;-64
2023/06/07 01:17:53;;;;;;;0.70;0.60;;;18.60;99.90;;;;;;5072714;28;20678;-64
2023/06/07 01:20:25;;;;;;;0.60;0.60;;;18.60;99.90;;;;;;5072108;28;20200;-65
2023/06/07 01:22:58;;;;;;;0.95;0.80;;;18.60;99.90;;;;;;5070471;28;20219;-64
2023/06/07 01:25:27;;;;;;;0.80;0.63;;;18.50;99.90;;;;;;5067652;28;20232;-64
2023/06/07 01:27:56;;;;;;;0.80;0.65;;;18.60;99.90;;;;;;5065988;28;20266;-64
2023/06/07 01:30:25;;;;;;;0.60;0.50;;;18.60;99.90;;;;;;5070726;28;20208;-64
2023/06/07 01:32:54;;;;;;;0.68;0.68;;;18.60;99.90;;;;;;5069559;28;20287;-64
2023/06/07 01:35:22;;;;;;;0.70;0.57;;;18.60;99.90;;;;;;5068753;28;20310;-64
2023/06/07 01:37:51;;;;;;;0.60;0.47;;;18.50;99.90;;;;;;5070880;28;20571;-64
2023/06/07 01:40:21;;;;;;;1.15;0.75;;;18.60;99.90;;;;;;5069170;28;20636;-64
2023/06/07 01:42:51;;;;;;;0.82;0.65;;;18.50;99.90;;;;;;5071053;28;20697;-65
2023/06/07 01:45:19;;;;;;;0.60;0.60;;;18.60;99.90;;;;;;5068609;28;20672;-64
2023/06/07 01:47:48;;;;;;;1.45;0.90;;;18.50;99.90;;;;;;5067903;28;20585;-64
2023/06/07 01:50:21;;;;;;;1.10;0.80;;;18.60;99.90;;;;;;5067900;28;20196;-64
2023/06/07 01:52:49;;;;;;;1.85;1.58;;;18.50;99.90;;;;;;5061452;28;20204;-64
2023/06/07 01:55:18;;;;;;;0.73;0.55;;;18.50;99.90;;;;;;5068401;28;20211;-63
2023/06/07 01:57:53;;;;;;;0.90;0.60;;;18.50;99.90;;;;;;5065700;28;20205;-64
2023/06/07 02:00:27;;;;;;;1.20;0.88;;;18.40;99.90;;;;;;5070063;28;20892;-64
2023/06/07 02:02:59;;;;;;;0.70;0.60;;;18.40;99.90;;;;;;5069850;28;20213;-64
2023/06/07 02:05:34;;;;;;;0.70;0.70;;;18.40;99.90;;;;;;5068581;28;20231;-63
2023/06/07 02:08:13;;;;;;;0.60;0.55;;;18.40;99.90;;;;;;5065625;28;20692;-62
2023/06/07 02:10:43;;;;;;;1.73;0.90;;;18.30;99.90;;;;;;5068976;28;20583;-63
2023/06/07 02:13:14;;;;;;;1.20;1.10;;;18.30;99.90;;;;;;5070090;28;20214;-64
2023/06/07 02:15:45;;;;;;;0.90;0.80;;;18.30;99.90;;;;;;5067986;28;20216;-63
2023/06/07 02:18:14;;;;;;;0.98;0.88;;;18.20;99.90;;;;;;5066959;28;20199;-63
2023/06/07 02:20:42;;;;;;;0.80;0.60;;;18.20;99.90;;;;;;5068064;28;20235;-64
2023/06/07 02:23:10;;;;;;;0.75;0.75;;;18.10;99.90;;;;;;5068312;28;20203;-64
2023/06/07 02:25:38;;;;;;;0.73;0.73;;;18.10;99.90;;;;;;5063009;28;20284;-64
2023/06/07 02:28:06;;;;;;;0.70;0.60;;;18.00;99.90;;;;;;5069041;28;20207;-64
2023/06/07 02:30:35;;;;;;;0.68;0.60;;;18.00;99.90;;;;;;5067830;28;20195;-64
2023/06/07 02:33:05;;;;;;;1.13;0.77;;;17.90;99.90;;;;;;5068358;28;20207;-62
2023/06/07 02:35:33;;;;;;;0.80;0.60;;;17.90;99.90;;;;;;5065281;28;20223;-63
2023/06/07 02:38:01;;;;;;;0.70;0.70;;;17.80;99.90;;;;;;5065200;28;20211;-63
2023/06/07 02:40:29;;;;;;;0.90;0.80;;;17.70;99.90;;;;;;5067773;28;20207;-63
2023/06/07 02:42:57;;;;;;;1.10;0.80;;;17.60;99.90;;;;;;5068668;28;20684;-64
2023/06/07 02:45:25;;;;;;;0.80;0.80;;;17.40;99.90;;;;;;5068468;28;20235;-62
2023/06/07 02:47:54;;;;;;;0.90;0.73;;;17.30;99.90;;;;;;5068628;28;20221;-64
2023/06/07 02:50:22;;;;;;;1.25;1.15;;;17.10;99.90;;;;;;5067828;28;20206;-64
2023/06/07 02:52:51;;;;;;;0.93;0.82;;;17.20;99.90;;;;;;5064023;28;20206;-63
2023/06/07 02:55:19;;;;;;;1.38;0.90;;;17.30;99.90;;;;;;5068223;28;20253;-64
2023/06/07 02:57:47;;;;;;;1.08;0.90;;;17.40;99.90;;;;;;5069476;28;20212;-64
2023/06/07 03:00:16;;;;;;;1.00;0.70;;;17.40;99.90;;;;;;5068273;28;20217;-64
2023/06/07 03:02:44;;;;;;;0.70;0.60;;;17.50;99.90;;;;;;5064179;28;20283;-64
2023/06/07 03:05:14;;;;;;;0.82;0.75;;;17.50;99.90;;;;;;5070530;28;20223;-63
2023/06/07 03:07:42;;;;;;;0.90;0.65;;;17.50;99.90;;;;;;5070573;28;20317;-64
2023/06/07 03:10:11;;;;;;;1.23;0.95;;;17.60;99.90;;;;;;5070170;28;20208;-63
2023/06/07 03:12:39;;;;;;;0.90;0.60;;;17.60;99.90;;;;;;5071149;28;20626;-63
2023/06/07 03:15:07;;;;;;;0.60;0.50;;;17.60;99.90;;;;;;5070245;28;20624;-64
2023/06/07 03:17:36;;;;;;;1.23;0.60;;;17.60;99.90;;;;;;5070448;28;20282;-62
2023/06/07 03:20:06;;;;;;;0.73;0.70;;;17.60;99.90;;;;;;5066022;28;20659;-63
2023/06/07 03:22:37;;;;;;;0.75;0.70;;;17.40;99.90;;;;;;5064983;28;20203;-63
2023/06/07 03:25:06;;;;;;;1.10;0.60;;;17.20;99.90;;;;;;5057460;28;20222;-63
2023/06/07 03:27:34;;;;;;;1.13;0.80;;;17.20;99.90;;;;;;5061766;28;20212;-63
2023/06/07 03:30:03;;;;;;;0.70;0.65;;;17.10;99.90;;;;;;5058171;28;20209;-63
2023/06/07 03:32:32;;;;;;;0.75;0.55;;;17.00;99.90;;;;;;5067870;28;20680;-63
2023/06/07 03:35:00;;;;;;;1.05;0.60;;;17.00;99.90;;;;;;5088044;22;20551;-72
2023/06/07 03:37:27;;;;;;;1.00;0.80;;;16.90;99.90;;;;;;5065801;28;20246;-73
2023/06/07 03:39:57;;;;;;;0.60;0.50;;;17.00;99.90;;;;;;5067326;28;20265;-73
2023/06/07 03:42:25;;;;;;;0.90;0.80;;;17.00;99.90;;;;;;5068119;28;20207;-74
2023/06/07 03:44:53;;;;;;;0.82;0.60;;;17.10;99.90;;;;;;5060898;28;20235;-73
2023/06/07 03:47:20;;;;;;;0.80;0.70;;;17.20;99.90;;;;;;5065549;28;20227;-73
2023/06/07 03:49:48;;;;;;;1.15;0.85;;;17.30;99.90;;;;;;5062736;28;20673;-74
2023/06/07 03:52:16;;;;;;;0.88;0.80;;;17.30;99.90;;;;;;5062136;28;20570;-74
2023/06/07 03:54:44;;;;;;;0.73;0.63;;;17.10;99.90;;;;;;5067956;28;20249;-73
2023/06/07 03:57:13;;;;;;;0.60;0.60;;;17.20;99.90;;;;;;5067047;28;20627;-69
2023/06/07 03:59:41;;;;;;;0.80;0.50;;;17.10;99.90;;;;;;5066332;28;20923;-72
2023/06/07 04:02:09;;;;;;;0.77;0.60;;;17.10;99.90;;;;;;5069933;28;20212;-70
2023/06/07 04:04:37;;;;;;;0.80;0.70;;;17.20;99.90;;;;;;5068702;28;20208;-72
2023/06/07 04:07:07;;;;;;;1.00;0.65;;;17.30;99.90;;;;;;5068289;28;20322;-71
2023/06/07 04:09:35;;;;;;;0.75;0.60;;;17.40;99.90;;;;;;5066234;28;20244;-71
2023/06/07 04:12:05;;;;;;;0.80;0.70;;;17.40;99.90;;;;;;5054128;28;20327;-71
2023/06/07 04:14:34;;;;;;;0.70;0.60;;;17.60;99.90;;;;;;5065899;28;21002;-71
2023/06/07 04:17:03;;;;;;;1.08;0.70;;;17.70;99.90;;;;;;5058506;28;20291;-71
2023/06/07 04:19:31;;;;;;;0.80;0.60;;;17.70;99.90;;;;;;5062874;28;20212;-71
2023/06/07 04:21:58;;;;;;;1.67;0.82;;;17.80;99.90;;;;;;5063841;28;20203;-71
2023/06/07 04:24:26;;;;;;;0.90;0.90;;;17.80;99.90;;;;;;5072151;28;20209;-70
2023/06/07 04:26:56;;;;;;;0.70;0.70;;;17.80;99.90;;;;;;5068050;28;20233;-70
2023/06/07 04:29:25;;;;;;;0.98;0.98;;;17.80;99.90;;;;;;5068590;28;20199;-71
2023/06/07 04:31:56;;;;;;;1.70;1.35;;;17.90;99.90;;;;;;5053567;28;20666;-71
2023/06/07 04:34:24;;;;;;;1.33;1.23;;;18.10;99.90;;;;;;5072099;28;20289;-71
2023/06/07 04:36:53;;;;;;;0.60;0.50;;;17.90;99.90;;;;;;5065309;28;20231;-72
2023/06/07 04:39:21;;;;;;;0.80;0.70;;;17.80;99.90;;;;;;5071090;28;20215;-70
2023/06/07 04:41:52;;;;;;;0.60;0.50;;;17.80;99.90;;;;;;5066675;28;20212;-71
2023/06/07 04:44:28;;;;;;;0.93;0.73;;;17.90;99.90;;;;;;5062302;28;20844;-70
2023/06/07 04:46:59;;;;;;;1.13;0.93;;;18.20;99.90;;;;;;5070499;28;20223;-71
2023/06/07 04:49:35;;;;;;;1.00;0.80;;;18.40;99.90;;;;;;5071257;28;20210;-72
2023/06/07 04:52:05;;;;;;;1.00;0.60;;;18.50;99.90;;;;;;5069985;28;20210;-71
2023/06/07 04:54:36;;;;;;;1.17;0.93;;;18.60;99.90;;;;;;5073210;28;20612;-71
2023/06/07 04:57:06;;;;;;;0.88;0.65;;;18.70;99.90;;;;;;5071975;28;20204;-71
2023/06/07 04:59:41;;;;;;;1.02;0.70;;;18.80;99.90;;;;;;5069909;28;20204;-72
2023/06/07 05:02:11;;;;;;;1.00;0.82;;;19.00;99.90;;;;;;5068126;28;20212;-71
2023/06/07 05:04:40;;;;;;;0.70;0.65;;;19.10;99.90;;;;;;5068479;28;20204;-71
2023/06/07 05:07:08;;;;;;;0.77;0.68;;;19.20;99.90;;;;;;5066880;28;20309;-71
2023/06/07 05:09:37;;;;;;;0.60;0.50;;;19.30;99.90;;;;;;5068236;28;20253;-72
2023/06/07 05:12:06;;;;;;;1.58;1.45;;;19.40;99.90;;;;;;5068118;28;20287;-71
2023/06/07 05:14:34;;;;;;;1.30;0.65;;;19.30;99.90;;;;;;5072637;28;20208;-72
2023/06/07 05:17:02;;;;;;;0.75;0.70;;;19.30;99.90;;;;;;5070482;28;20663;-71
2023/06/07 05:19:31;;;;;;;0.75;0.75;;;19.20;99.90;;;;;;5071903;28;20219;-71
2023/06/07 05:21:59;;;;;;;0.90;0.60;;;19.10;99.90;;;;;;5070557;28;20222;-71
2023/06/07 05:24:27;;;;;;;0.60;0.50;;;19.10;99.90;;;;;;5072975;28;20230;-71
2023/06/07 05:26:55;;;;;;;0.70;0.40;;;19.10;99.90;;;;;;5067643;28;20224;-71
2023/06/07 05:29:23;;;;;;;0.73;0.73;;;19.10;99.90;;;;;;5070489;28;20199;-71
2023/06/07 05:31:54;;;;;;;0.90;0.70;;;18.90;99.90;;;;;;5068978;28;20208;-72
2023/06/07 05:34:22;;;;;;;3.08;0.90;;;18.90;99.90;;;;;;5070158;28;20216;-71
2023/06/07 05:36:51;;;;;;;0.70;0.65;;;19.00;99.90;;;;;;5063863;28;20713;-72
2023/06/07 05:39:19;;;;;;;0.77;0.60;;;19.10;99.90;;;;;;5072576;28;20235;-71
2023/06/07 05:41:47;;;;;;;0.60;0.50;;;19.20;99.90;;;;;;5072442;28;20204;-72
2023/06/07 05:44:15;;;;;;;0.70;0.63;;;19.20;99.90;;;;;;5071958;28;20213;-72
2023/06/07 05:46:42;;;;;;;0.70;0.65;;;19.20;99.90;;;;;;5068771;28;20224;-72
2023/06/07 05:49:10;;;;;;;0.90;0.70;;;19.30;99.90;;;;;;5067837;28;20259;-71
2023/06/07 05:51:38;;;;;;;0.70;0.70;;;19.30;99.90;;;;;;5062838;28;20208;-73
2023/06/07 05:54:08;;;;;;;0.60;0.40;;;19.40;99.90;;;;;;5069543;28;20202;-72
2023/06/07 05:56:36;;;;;;;0.80;0.70;;;19.40;99.90;;;;;;5070301;28;20238;-71
2023/06/07 05:59:04;;;;;;;1.10;1.02;;;19.50;99.90;;;;;;5070429;28;20204;-71
2023/06/07 06:01:34;;;;;;;5.75;1.30;;;19.50;99.90;;;;;;5067001;28;20714;-72
2023/06/07 06:04:03;;;;;;;0.70;0.63;;;19.50;99.90;;;;;;5062104;28;20227;-72
2023/06/07 06:06:31;;;;;;;0.63;0.60;;;19.60;99.90;;;;;;5071182;28;20227;-72
2023/06/07 06:08:58;;;;;;;0.70;0.60;;;19.60;99.90;;;;;;5072153;28;20215;-72
2023/06/07 06:11:28;;;;;;;1.35;0.82;;;19.70;99.90;;;;;;5072044;28;20212;-72
2023/06/07 06:13:55;;;;;;;0.90;0.80;;;19.70;99.90;;;;;;5071820;28;20203;-72
2023/06/07 06:16:23;;;;;;;0.70;0.50;;;19.70;99.90;;;;;;5072908;28;20779;-71
2023/06/07 06:18:51;;;;;;;0.75;0.70;;;19.80;99.90;;;;;;5071806;28;20195;-72
2023/06/07 06:21:19;;;;;;;0.82;0.60;;;19.70;99.90;;;;;;5072538;28;20210;-72
2023/06/07 06:23:47;;;;;;;0.70;0.60;;;19.70;99.90;;;;;;5072479;28;20200;-72
2023/06/07 06:26:17;;;;;;;0.88;0.88;;;19.70;99.90;;;;;;5071608;28;20227;-72
2023/06/07 06:28:47;;;;;;;0.82;0.82;;;19.90;99.90;;;;;;5070730;28;20588;-72
2023/06/07 06:31:14;;;;;;;1.10;0.73;;;19.90;99.90;;;;;;5069831;28;20211;-72
2023/06/07 06:33:43;;;;;;;0.60;0.60;;;20.00;99.90;;;;;;5069875;28;20208;-72
2023/06/07 06:36:11;;;;;;;0.70;0.60;;;20.10;99.90;;;;;;5069416;28;20579;-72
2023/06/07 06:38:39;;;;;;;0.70;0.60;;;20.10;99.90;;;;;;5069256;28;20433;-72
2023/06/07 06:41:07;;;;;;;0.90;0.80;;;20.00;99.90;;;;;;5069799;28;20550;-72
2023/06/07 06:43:36;;;;;;;0.60;0.60;;;20.00;99.90;;;;;;5068958;28;20833;-72
2023/06/07 06:46:05;;;;;;;1.05;0.85;;;20.10;99.90;;;;;;5071765;28;20224;-72
2023/06/07 06:48:33;;;;;;;0.65;0.57;;;20.20;99.90;;;;;;5070529;28;20219;-72
2023/06/07 06:51:01;;;;;;;0.70;0.60;;;20.40;99.90;;;;;;5071771;28;20254;-72
2023/06/07 06:53:28;;;;;;;0.95;0.70;;;20.40;99.90;;;;;;5071125;28;20204;-72
2023/06/07 06:55:56;;;;;;;0.70;0.60;;;20.50;99.90;;;;;;5071250;28;20231;-72
2023/06/07 06:58:24;;;;;;;0.70;0.60;;;20.50;99.90;;;;;;5070863;28;20215;-72
2023/06/07 07:00:52;;;;;;;1.02;0.60;;;20.60;99.90;;;;;;5072002;28;20564;-72
2023/06/07 07:03:22;;;;;;;1.40;0.75;;;20.80;99.90;;;;;;5071201;28;20587;-72
2023/06/07 07:05:50;;;;;;;0.80;0.60;;;21.10;99.90;;;;;;5071162;28;20632;-72
2023/06/07 07:08:18;;;;;;;0.77;0.75;;;21.20;99.90;;;;;;5070936;28;20229;-73
2023/06/07 07:10:47;;;;;;;0.82;0.82;;;21.30;99.90;;;;;;5063240;28;20265;-72
2023/06/07 07:13:15;;;;;;;0.82;0.60;;;21.30;99.90;;;;;;5071611;28;20235;-72
2023/06/07 07:15:43;;;;;;;0.70;0.57;;;21.40;99.90;;;;;;5071128;28;20764;-72
2023/06/07 07:18:11;;;;;;;0.60;0.52;;;21.60;99.90;;;;;;5071154;28;20211;-72
2023/06/07 07:20:40;;;;;;;0.75;0.70;;;21.80;99.90;;;;;;5070706;28;20318;-72
2023/06/07 07:23:08;;;;;;;0.98;0.98;;;21.90;99.90;;;;;;5071284;28;20209;-71
2023/06/07 07:25:36;;;;;;;1.25;0.70;;;22.10;99.90;;;;;;5070824;28;20232;-72
2023/06/07 07:28:04;;;;;;;0.90;0.90;;;22.10;99.90;;;;;;5071134;28;20224;-72
2023/06/07 07:30:33;;;;;;;0.70;0.60;;;22.20;99.90;;;;;;5071305;28;20213;-73
2023/06/07 07:33:01;;;;;;;0.73;0.68;;;22.10;99.90;;;;;;5072147;28;20212;-72
2023/06/07 07:35:29;;;;;;;0.90;0.90;;;22.10;99.90;;;;;;5071283;28;20252;-72
2023/06/07 07:38:01;;;;;;;0.90;0.60;;;22.30;99.90;;;;;;5070700;28;20209;-72
2023/06/07 07:40:29;;;;;;;1.05;0.90;;;22.40;99.90;;;;;;5070854;28;20217;-72
2023/06/07 07:42:58;;;;;;;2.10;0.90;;;22.30;99.90;;;;;;5071713;28;20213;-72
2023/06/07 07:45:26;;;;;;;1.05;0.95;;;22.50;99.90;;;;;;5070700;28;20233;-72
2023/06/07 07:47:54;;;;;;;1.70;0.70;;;22.60;99.90;;;;;;5070346;28;20297;-73
2023/06/07 07:50:23;;;;;;;0.70;0.70;;;22.60;99.90;;;;;;5070887;28;20205;-72
2023/06/07 07:52:53;;;;;;;0.80;0.63;;;22.60;99.90;;;;;;5071261;28;20690;-72
2023/06/07 07:55:23;;;;;;;0.75;0.75;;;22.80;99.90;;;;;;5070791;28;20225;-72
2023/06/07 07:57:51;;;;;;;1.00;0.90;;;22.80;99.90;;;;;;5070738;28;20209;-73
2023/06/07 08:00:20;;;;;;;1.00;0.80;;;22.90;99.90;;;;;;5071577;28;20228;-72
2023/06/07 08:02:48;;;;;;;0.80;0.70;;;23.00;99.90;;;;;;5071263;28;20665;-72
2023/06/07 08:05:16;;;;;;;0.68;0.65;;;22.80;99.90;;;;;;5071069;28;20317;-72
2023/06/07 08:07:45;;;;;;;0.82;0.82;;;22.80;99.90;;;;;;5070210;28;20229;-72
2023/06/07 08:10:12;;;;;;;1.23;1.13;;;22.90;99.90;;;;;;5071090;28;20675;-72
2023/06/07 08:12:42;;;;;;;0.60;0.60;;;22.90;99.90;;;;;;5070957;28;20585;-72
2023/06/07 08:15:10;;;;;;;0.75;0.73;;;23.30;99.90;;;;;;5071535;28;20592;-71
2023/06/07 08:17:39;;;;;;;0.77;0.73;;;23.50;99.90;;;;;;5070736;28;20291;-72
2023/06/07 08:20:08;;;;;;;3.45;1.08;;;23.60;99.90;;;;;;5070689;28;20213;-72
2023/06/07 08:22:37;;;;;;;0.82;0.80;;;23.80;99.90;;;;;;5071484;28;20219;-72
2023/06/07 08:25:07;;;;;;;1.10;1.10;;;24.10;99.90;;;;;;5070488;28;20226;-72
2023/06/07 08:27:35;;;;;;;1.30;0.80;;;24.10;99.90;;;;;;5069996;28;20206;-71
2023/06/07 08:30:06;;;;;;;0.70;0.70;;;24.20;99.90;;;;;;5070929;28;20567;-72
2023/06/07 08:32:34;;;;;;;1.00;0.90;;;24.30;99.90;;;;;;5071264;28;20242;-72
2023/06/07 08:35:03;;;;;;;1.00;0.80;;;24.10;99.90;;;;;;5071025;28;20249;-72
2023/06/07 08:37:31;;;;;;;0.60;0.50;;;24.20;99.90;;;;;;5071044;28;20217;-72
2023/06/07 08:39:58;;;;;;;0.70;0.60;;;24.30;99.30;;;;;;5070875;28;20250;-74
2023/06/07 08:42:26;;;;;;;0.70;0.70;;;24.20;99.90;;;;;;5071137;28;20255;-73
2023/06/07 08:44:54;;;;;;;0.80;0.70;;;24.30;99.20;;;;;;5070522;28;20228;-73
2023/06/07 08:47:27;;;;;;;1.13;0.80;;;24.40;99.00;;;;;;5070198;28;20210;-73
2023/06/07 08:49:57;;;;;;;1.25;1.10;;;24.70;99.10;;;;;;5062267;28;20226;-73
2023/06/07 08:52:25;;;;;;;1.10;1.00;;;24.70;99.90;;;;;;5070132;28;20680;-74
2023/06/07 08:54:58;;;;;;;0.80;0.80;;;24.80;99.20;;;;;;5070233;28;20237;-73
2023/06/07 08:57:26;;;;;;;1.40;1.30;;;24.90;99.20;;;;;;5070296;28;20660;-73
2023/06/07 08:59:55;;;;;;;0.80;0.80;;;24.90;99.90;;;;;;5070229;28;20210;-74
2023/06/07 09:02:25;;;;;;;0.70;0.68;;;25.20;98.70;;;;;;5070255;28;20252;-73
2023/06/07 09:04:53;;;;;;;1.35;0.90;;;25.30;97.50;;;;;;5062193;28;20249;-73
2023/06/07 09:07:21;;;;;;;1.02;0.75;;;25.40;98.80;;;;;;5070842;28;20206;-73
2023/06/07 09:09:49;;;;;;;1.13;0.60;;;25.70;97.30;;;;;;5073474;28;20701;-71
2023/06/07 09:12:17;;;;;;;0.88;0.73;;;26.00;97.30;;;;;;5073648;28;20199;-71
2023/06/07 09:14:47;;;;;;;1.33;0.98;;;26.00;96.20;;;;;;5073234;28;20921;-71
2023/06/07 09:17:15;;;;;;;0.80;0.80;;;25.90;96.30;;;;;;5073167;28;20585;-71
2023/06/07 09:19:45;;;;;;;0.68;0.60;;;25.50;97.20;;;;;;5073090;28;20210;-71
2023/06/07 09:22:14;;;;;;;0.88;0.88;;;25.30;96.60;;;;;;5073284;28;20669;-71
2023/06/07 09:24:42;;;;;;;0.75;0.70;;;25.50;96.50;;;;;;5072934;28;20207;-71
2023/06/07 09:27:13;;;;;;;1.40;1.10;;;25.50;96.40;;;;;;5072837;28;20211;-71
2023/06/07 09:29:42;;;;;;;1.10;0.90;;;25.70;95.70;;;;;;5072740;28;20638;-71
2023/06/07 09:32:21;;;;;;;1.45;0.90;;;25.90;95.80;;;;;;5073383;28;20293;-71
2023/06/07 09:35:16;;;;;;;1.20;1.00;;;25.80;96.90;;;;;;5072210;28;20233;-71
2023/06/07 09:37:46;;;;;;;0.82;0.82;;;26.00;95.80;;;;;;5072589;28;20569;-71
2023/06/07 09:40:15;;;;;;;0.60;0.60;;;26.10;95.00;;;;;;5073089;28;20207;-72
2023/06/07 09:42:44;;;;;;;0.73;0.73;;;26.10;94.70;;;;;;5072833;28;20301;-71
2023/06/07 09:45:13;;;;;;;0.88;0.88;;;26.00;96.30;;;;;;5072582;28;20242;-71
2023/06/07 09:47:42;;;;;;;1.10;1.00;;;25.80;96.10;;;;;;5072145;28;20217;-71
2023/06/07 09:50:12;;;;;;;0.80;0.70;;;25.80;96.20;;;;;;5072530;28;20229;-71
2023/06/07 09:52:41;;;;;;;2.10;1.25;;;25.50;96.90;;;;;;5072470;28;20271;-72
2023/06/07 09:55:24;;;;;;;0.85;0.65;;;25.60;97.10;;;;;;5072918;28;20221;-71
2023/06/07 09:57:52;;;;;;;1.25;1.10;;;25.60;97.00;;;;;;5072614;28;20206;-71
2023/06/07 10:00:21;;;;;;;1.25;1.05;;;25.70;97.20;;;;;;5072481;28;20202;-71
2023/06/07 10:02:50;;;;;;;1.02;0.90;;;25.60;96.50;;;;;;5072779;28;20207;-71
2023/06/07 10:05:21;;;;;;;1.70;0.80;;;25.50;96.70;;;;;;5072093;28;20267;-71
2023/06/07 10:07:55;;;;;;;0.82;0.82;;;25.20;96.50;;;;;;5072324;28;20686;-71
2023/06/07 10:10:24;;;;;;;0.70;0.68;;;25.20;96.90;;;;;;5072513;28;20226;-71
2023/06/07 10:12:53;;;;;;;0.70;0.60;;;25.30;97.10;;;;;;5072716;28;20661;-71
2023/06/07 10:15:24;;;;;;;1.42;0.70;;;25.30;96.60;;;;;;5071760;28;20261;-71
2023/06/07 10:17:56;;;;;;;0.98;0.88;;;25.40;96.60;;;;;;5070879;28;20211;-71
2023/06/07 10:20:28;;;;;;;1.95;1.27;;;25.50;96.80;;;;;;5070699;28;20202;-71
2023/06/07 10:23:03;;;;;;;0.82;0.65;;;25.20;96.00;;;;;;5064321;28;20273;-71
2023/06/07 10:25:35;;;;;;;0.90;0.70;;;25.20;98.30;;;;;;5071186;28;20232;-70
2023/06/07 10:28:22;;;;;;;1.55;0.93;;;25.10;97.10;;;;;;5071998;28;20205;-71
2023/06/07 10:30:53;;;;;;;0.77;0.73;;;24.70;97.40;;;;;;5071831;28;20226;-71
2023/06/07 10:33:25;;;;;;;0.98;0.70;;;24.60;97.30;;;;;;5071980;28;20210;-71
2023/06/07 10:35:54;;;;;;;0.70;0.60;;;24.70;98.30;;;;;;5071239;28;20237;-71
2023/06/07 10:38:24;;;;;;;1.00;0.88;;;24.80;98.30;;;;;;5071947;28;20203;-72
2023/06/07 10:40:52;;;;;;;1.00;0.90;;;24.80;96.90;;;;;;5071567;28;20225;-71
2023/06/07 10:43:21;;;;;;;1.30;1.10;;;24.50;97.30;;;;;;5071716;28;20229;-71
2023/06/07 10:45:49;;;;;;;1.00;0.90;;;24.50;97.90;;;;;;5070946;28;20268;-73
2023/06/07 10:48:34;;;;;;;0.75;0.75;;;24.60;98.00;;;;;;5071867;28;20320;-71
2023/06/07 10:51:02;;;;;;;0.70;0.70;;;24.50;97.20;;;;;;5071470;28;20765;-71
2023/06/07 10:53:51;;;;;;;0.70;0.55;;;24.90;98.30;;;;;;5072026;28;20241;-71
2023/06/07 10:56:30;;;;;;;1.23;1.13;;;25.20;97.60;;;;;;5066386;28;20230;-71
2023/06/07 10:59:20;;;;;;;0.77;0.77;;;25.70;97.20;;;;;;5072443;28;20666;-71
2023/06/07 11:01:49;;;;;;;0.70;0.70;;;26.20;96.70;;;;;;5071923;28;20203;-71
2023/06/07 11:04:52;;;;;;;0.70;0.70;;;26.70;96.20;;;;;;5070999;28;20211;-71
2023/06/07 11:07:22;;;;;;;1.20;1.10;;;27.10;95.70;;;;;;5066433;28;20694;-72
2023/06/07 11:10:41;;;;;;;1.00;0.90;;;27.00;96.00;;;;;;5071094;28;20223;-70
2023/06/07 11:13:09;;;;;;;1.13;1.02;;;27.40;95.10;;;;;;4990278;28;20252;-71
2023/06/07 11:15:38;;;;;;;0.70;0.70;;;27.70;94.30;;;;;;5052437;28;20361;-72
2023/06/07 11:18:08;;;;;;;2.25;1.27;;;28.40;95.40;;;;;;5071145;28;20657;-71
2023/06/07 11:20:51;;;;;;;2.33;1.20;;;28.80;94.80;;;;;;5068769;28;20211;-72
2023/06/07 11:23:24;;;;;;;1.23;1.13;;;28.60;93.80;;;;;;5071778;28;20243;-72
2023/06/07 11:26:00;;;;;;;1.33;1.23;;;28.60;92.40;;;;;;5070781;28;20226;-72
2023/06/07 11:28:29;;;;;;;1.00;0.90;;;29.10;93.20;;;;;;5070812;28;20254;-73
2023/06/07 11:30:57;;;;;;;0.80;0.77;;;29.80;92.30;;;;;;5070562;28;20239;-72
2023/06/07 11:33:27;;;;;;;1.75;0.70;;;30.30;91.70;;;;;;5071048;28;20213;-71
2023/06/07 11:35:56;;;;;;;0.70;0.60;;;30.10;91.40;;;;;;5070387;28;20238;-72
2023/06/07 11:38:26;;;;;;;0.80;0.80;;;29.60;90.90;;;;;;5070712;28;21044;-72
2023/06/07 11:40:55;;;;;;;0.82;0.82;;;28.80;91.90;;;;;;5070870;28;20209;-72
2023/06/07 11:43:24;;;;;;;0.80;0.80;;;28.70;92.10;;;;;;5070984;28;20219;-72
2023/06/07 11:45:56;;;;;;;1.65;1.10;;;28.80;91.90;;;;;;5070085;28;20277;-72
2023/06/07 11:48:27;;;;;;;0.77;0.70;;;29.10;91.80;;;;;;5070604;28;20575;-72
2023/06/07 11:50:55;;;;;;;0.70;0.70;;;29.10;92.10;;;;;;5070643;28;20314;-72
2023/06/07 11:53:23;;;;;;;1.45;1.25;;;28.80;92.80;;;;;;5070832;28;20199;-72
2023/06/07 11:55:53;;;;;;;0.80;0.70;;;28.30;92.20;;;;;;5070119;28;20226;-71
2023/06/07 11:58:24;;;;;;;0.93;0.90;;;28.20;92.20;;;;;;5070542;28;20214;-72
2023/06/07 12:00:53;;;;;;;1.30;1.08;;;28.00;92.40;;;;;;5070587;28;20202;-72
2023/06/07 12:03:21;;;;;;;0.70;0.70;;;28.00;93.00;;;;;;5070846;28;20222;-72
2023/06/07 12:05:50;;;;;;;0.98;0.60;;;27.70;92.10;;;;;;5069806;28;20595;-72
2023/06/07 12:08:20;;;;;;;0.95;0.80;;;27.70;92.80;;;;;;5070449;28;20203;-72
2023/06/07 12:10:53;;;;;;;0.80;0.65;;;27.30;92.70;;;;;;5070045;28;20590;-72
2023/06/07 12:13:23;;;;;;;0.68;0.65;;;27.30;93.20;;;;;;5070780;28;20282;-72
2023/06/07 12:15:55;;;;;;;0.80;0.80;;;27.70;92.70;;;;;;5070096;28;20207;-71
2023/06/07 12:18:25;;;;;;;0.90;0.70;;;28.40;92.00;;;;;;5070312;28;20203;-72
2023/06/07 12:21:03;;;;;;;1.15;1.05;;;28.80;91.10;;;;;;5069694;28;20231;-72
2023/06/07 12:23:31;;;;;;;1.02;0.82;;;29.10;91.90;;;;;;5070705;28;20720;-72
2023/06/07 12:26:07;;;;;;;0.70;0.67;;;29.50;91.20;;;;;;5069893;28;20297;-72
2023/06/07 12:28:38;;;;;;;0.80;0.70;;;29.80;90.20;;;;;;5070143;28;20635;-72
2023/06/07 12:31:15;;;;;;;0.80;0.77;;;30.10;91.00;;;;;;5062323;28;20222;-71
2023/06/07 12:33:53;;;;;;;1.10;1.03;;;30.50;90.70;;;;;;5069816;28;20677;-72
2023/06/07 12:36:21;;;;;;;0.90;0.87;;;30.70;89.20;;;;;;5070055;28;20657;-72
2023/06/07 12:38:50;;;;;;;0.88;0.88;;;30.50;88.00;;;;;;5070256;28;20629;-72
2023/06/07 12:41:17;;;;;;;0.90;0.85;;;30.20;88.50;;;;;;5070327;28;20203;-72
2023/06/07 12:43:48;;;;;;;1.52;0.90;;;29.80;90.80;;;;;;5074112;28;20207;-72
2023/06/07 12:46:16;;;;;;;1.70;1.05;;;29.00;90.30;;;;;;5074924;28;20229;-73
2023/06/07 12:48:44;;;;;;;1.20;1.10;;;28.70;90.60;;;;;;5074282;28;20203;-72
2023/06/07 12:51:11;;;;;;;0.73;0.73;;;28.90;90.90;;;;;;5073950;28;20324;-72
2023/06/07 12:53:40;;;;;;;0.82;0.82;;;29.00;91.20;;;;;;5074092;28;20202;-73
2023/06/07 12:56:07;;;;;;;0.95;0.85;;;29.10;90.70;;;;;;5056116;28;20292;-72
2023/06/07 12:58:35;;;;;;;0.77;0.77;;;29.40;90.90;;;;;;5074451;28;20225;-72
2023/06/07 13:01:05;;;;;;;1.00;0.80;;;29.50;91.20;;;;;;5073922;28;20207;-71
2023/06/07 13:03:33;;;;;;;1.00;0.70;;;29.50;90.40;;;;;;5073869;28;20641;-72